ADDS TAF Data INFO
IDs: Format: Raw Decoded Include METARs

Data at: 0543 UTC 22 Nov 2017

Region: TOP
KATL 220543Z 2206/2312 34003KT P6SM BKN025
  TEMPO 2206/2210 SCT008 BKN015
  FM221200 34008KT P6SM FEW008 SCT025
  FM221400 34012G18KT P6SM SCT250
  FM222200 34008KT P6SM SCT250
  FM230600 02007KT P6SM BKN035


KBOS 220527Z 2206/2312 22012KT P6SM SCT250
  FM221100 19007KT P6SM -RA BKN025 OVC040
  FM221400 19004KT 2SM RA BR OVC008
  FM221700 27004KT 4SM -RA BR OVC008
  FM221900 31010G17KT 5SM BR VCSH BKN008
  FM222200 33012G24KT P6SM SCT025
  FM230900 31010G20KT P6SM SKC


KBWI 220521Z 2206/2312 20006KT P6SM BKN060 OVC130
  FM220900 22004KT 6SM -RA SCT025 OVC060
  FM221200 29010KT P6SM SCT060 SCT130
  FM221400 32015G27KT P6SM FEW060
  FM230000 32010KT P6SM SKC
  FM230900 31005KT P6SM SKC


KCLE 220525Z 2206/2312 31012KT P6SM OVC015
  TEMPO 2206/2210 OVC025
  FM221000 31012KT P6SM BKN035
  FM221700 31010KT P6SM SCT040
  FM222200 VRB06KT P6SM SCT250
  FM230800 20007KT P6SM BKN120


KCLT 220542Z 2206/2306 01003KT P6SM BKN025
  FM220900 34003KT 5SM BR OVC010
  TEMPO 2209/2213 1SM BR OVC004
  FM221300 34005KT P6SM FEW040
  FM221500 35010G18KT P6SM SCT250
  FM222100 02007KT P6SM BKN250


KCVG 220537Z 2206/2312 31012KT P6SM FEW040
  FM220700 32008KT P6SM SCT050
  FM221500 33008KT P6SM FEW050 SCT250
  FM222300 VRB04KT P6SM SCT250


KDCA 220521Z 2206/2306 20006KT P6SM BKN060 OVC130
  FM220900 22004KT 6SM -RA SCT025 OVC060
  FM221200 31010KT P6SM SCT060 SCT130
  FM221400 32015G27KT P6SM FEW060
  FM230000 34010KT P6SM SKC


KDEN 220539Z 2206/2312 26008KT P6SM FEW150 BKN220
  FM220800 20011KT P6SM FEW140 BKN220
  FM221500 25010KT P6SM FEW130 BKN220
  FM221900 02009KT P6SM SCT120 BKN220
  FM230200 21011KT P6SM FEW120 BKN220


KDFW 220520Z 2206/2312 36016KT P6SM SKC
  FM222100 36010KT P6SM SKC
  FM230300 33004KT P6SM SKC
  FM230900 23005KT P6SM SKC


KDTW 220531Z 2206/2312 31012KT P6SM SCT035 BKN050
  FM221600 28010KT P6SM BKN050
  FM222000 24008KT P6SM SCT050
  FM230100 22006KT P6SM BKN250


KEWR 220539Z 2206/2312 VRB04KT P6SM SCT050 OVC200
  FM221000 VRB04KT 6SM -RA OVC040
  FM221200 VRB05KT 5SM -RA BR OVC010
  FM221400 30009KT 6SM -SHRA BKN030
  FM221600 32013G20KT P6SM SCT035 BKN080
  FM221900 32018G25KT P6SM SCT040 SCT250
  FM230300 32012G19KT P6SM SKC
  FM230600 31009KT P6SM SKC


KFLL 220535Z 2206/2312 VRB02KT P6SM FEW025 SCT070 SCT200
  FM221700 08008KT P6SM SCT030 BKN100
  FM230000 VRB03KT P6SM FEW030 SCT250


KIAD 220521Z 2206/2312 20005KT P6SM BKN060 BKN130
  FM221100 29007KT P6SM SCT060 SCT130
  FM221300 32015G27KT P6SM FEW060
  FM230000 33010KT P6SM SKC
  FM230300 33005KT P6SM SKC


KIAH 220522Z 2206/2312 02012KT P6SM VCSH SCT022 BKN040 BKN050
  TEMPO 2206/2210 BKN015
  FM221200 36014G22KT P6SM FEW025 BKN045
  FM221900 35013G18KT P6SM SCT250
  FM230100 35006KT P6SM SKC


KJFK 220539Z 2206/2312 20007KT P6SM SCT040 OVC200
  FM220900 21007KT 6SM -RA OVC035
  FM221100 VRB05KT 4SM -RA BR OVC010
  FM221400 31010KT 6SM -SHRA BKN015
  FM221600 32013G20KT P6SM SCT025 BKN070
  FM221900 32019G26KT P6SM SCT040 SCT250
  FM230300 32014G20KT P6SM SKC
  FM230600 32010KT P6SM SKC


KLAS 220520Z 2206/2312 25005KT P6SM SCT200 BKN250
  FM221600 VRB04KT P6SM SKC
  FM230400 22005KT P6SM SCT250


KLAX 220542Z 2206/2312 VRB03KT P6SM SKC
  FM221200 04006KT P6SM SKC
  FM222100 27008KT P6SM SKC
  FM230500 VRB03KT P6SM SKC


KLGA 220539Z 2206/2306 19007KT P6SM SCT045 OVC200
  FM220900 21006KT 6SM -RA OVC040
  FM221100 VRB05KT 4SM -RA BR OVC010
  FM221400 32008KT 6SM -SHRA BKN025
  FM221600 32012G19KT P6SM SCT030 BKN080
  FM221900 33018G25KT P6SM SCT040 SCT250
  FM230300 32013G19KT P6SM SKC


KMCO 220542Z 2206/2312 VRB03KT P6SM FEW005 BKN250
  FM220800 00000KT 2SM BR BKN005 OVC015
  TEMPO 2209/2212 1/2SM FG OVC003
  FM221300 34005KT P6SM FEW015 SCT035 BKN250
  FM221700 03008KT P6SM BKN050
  FM230300 04006KT P6SM SCT015 BKN030


KMDW 220530Z 2206/2306 32010KT P6SM FEW045
  FM221500 27006KT P6SM SKC
  FM222200 22007KT P6SM OVC150
  FM230300 20009KT P6SM OVC060


KMEM 220523Z 2206/2312 01007KT P6SM SKC
  FM220700 01012G18KT P6SM SKC
  FM221800 02010KT P6SM SKC
  FM230000 02003KT P6SM SKC


KMIA 220535Z 2206/2312 VRB02KT P6SM FEW025 BKN070
  FM221700 09010KT P6SM SCT030 BKN100
  FM230000 VRB03KT P6SM FEW025 SCT250


KMSP 220520Z 2206/2312 31008KT P6SM FEW250
  FM221400 23004KT P6SM BKN250
  FM221800 19013G18KT P6SM BKN060 OVC150
  FM230300 19008KT P6SM OVC050


KORD 220530Z 2206/2312 32010KT P6SM FEW045
  FM221500 27006KT P6SM SKC
  FM222200 22007KT P6SM OVC150
  FM230300 20009KT P6SM OVC060


KPDX 220530Z 2206/2306 12014KT P6SM -RA OVC060
  FM221200 12012KT 6SM -RA BR BKN035 OVC050
  FM221500 12010KT P6SM -RA SCT040 OVC060
  FM230400 12008KT P6SM -RA BKN025 OVC040


KPHL 220520Z 2206/2312 21005KT P6SM BKN040
  FM220700 20004KT P6SM VCSH OVC040
  TEMPO 2208/2212 5SM -RA
  FM221200 25004KT P6SM VCSH OVC035
  TEMPO 2212/2213 5SM -RA
  FM221300 28005KT P6SM VCSH OVC035
  FM221500 32009G18KT P6SM BKN035
  FM221800 32011G22KT P6SM SCT040
  FM230200 33011KT P6SM SKC


KPHX 220520Z 2206/2312 10007KT P6SM SCT250
  TEMPO 2216/2220 09012G20KT


KPIT 220539Z 2206/2312 22006KT P6SM BKN050
  FM220830 28008KT P6SM -SHRA OVC035
  FM221000 30007KT 5SM -SHSN BKN015
  FM221100 30007KT P6SM BKN025
  FM221600 27004KT P6SM BKN035


KSAN 220520Z 2206/2312 VRB04KT P6SM SCT200
  FM222000 30009KT P6SM FEW200
  FM230100 VRB04KT P6SM FEW200


KSEA 220525Z 2206/2312 15008KT 2SM +RA BR BKN004 OVC020
  FM220730 16008KT 5SM -SHRA BR OVC015
  FM221100 17007KT P6SM VCSH OVC015
  FM222100 18012G20KT P6SM -SHRA SCT025 OVC040
  FM230500 18011KT P6SM -SHRA BKN020 OVC035


KSFO 220540Z 2206/2312 16005KT P6SM FEW250
  FM220800 00000KT P6SM FEW250
  FM221900 33004KT P6SM BKN250
  FM230400 29005KT P6SM OVC250
  FM230800 34004KT P6SM OVC200


KSLC 220529Z 2206/2312 15006KT P6SM SCT060 BKN200
  FM222000 33006KT P6SM FEW200
  FM230300 15006KT P6SM BKN200


KSTL 220520Z 2206/2312 33008KT P6SM SKC
  FM221700 34004KT P6SM SKC


KTPA 220533Z 2206/2312 00000KT P6SM BKN150
  FM220800 VRB03KT 5SM BR SCT005 SCT150
  TEMPO 2209/2213 3SM BR BKN010
  FM221400 VRB03KT P6SM SCT020 SCT150
  FM221700 33005KT P6SM VCSH SCT035 SCT150
  FM222300 05005KT P6SM SCT040 BKN150
  FM230800 VRB04KT 6SM BR SCT010